Time;durP1;ratioP1;P1;durP2;ratioP2;P2;SDS_P1;SDS_P2;PMS_P1;PMS_P2;Temp;Humidity;BMP_temperature;BMP_pressure;BME280_temperature;BME280_humidity;BME280_pressure;Samples;Min_cycle;Max_cycle;Signal;HPM_P1;HPM_P2
2022/02/25 00:00:24;;;;;;;15.07;7.18;;;;;;;3.84;72.49;100385.41;5113347;28;20497;-71
2022/02/25 00:02:52;;;;;;;14.27;7.07;;;;;;;3.89;72.49;100383.50;5112835;28;20054;-72
2022/02/25 00:05:20;;;;;;;13.80;7.13;;;;;;;4.03;71.55;100381.28;5113197;28;20040;-72
2022/02/25 00:07:48;;;;;;;17.92;9.23;;;;;;;3.89;72.22;100386.13;5112903;28;20063;-73
2022/02/25 00:10:18;;;;;;;17.80;8.23;;;;;;;3.89;72.25;100391.41;5094925;28;20054;-71
2022/02/25 00:12:47;;;;;;;18.48;8.23;;;;;;;3.78;73.17;100396.16;5112871;28;20066;-79
2022/02/25 00:15:16;;;;;;;13.82;7.65;;;;;;;3.94;72.11;100392.13;5095250;28;20396;-72
2022/02/25 00:17:45;;;;;;;15.63;8.10;;;;;;;3.96;71.81;100390.31;5113157;28;20143;-71
2022/02/25 00:20:15;;;;;;;18.15;8.32;;;;;;;3.88;72.49;100388.84;5112771;28;20098;-70
2022/02/25 00:22:47;;;;;;;15.98;8.88;;;;;;;3.81;72.78;100374.94;5112712;28;20430;-72
2022/02/25 00:25:15;;;;;;;16.35;7.85;;;;;;;3.88;72.28;100371.22;5112792;28;20047;-72
2022/02/25 00:27:45;;;;;;;16.35;7.93;;;;;;;3.87;72.21;100385.34;5095058;28;20051;-72
2022/02/25 00:30:14;;;;;;;17.17;8.50;;;;;;;3.76;72.97;100381.25;5115297;28;20049;-72
2022/02/25 00:32:44;;;;;;;17.85;8.35;;;;;;;3.54;75.32;100394.25;5116317;28;20466;-72
2022/02/25 00:35:15;;;;;;;18.73;9.50;;;;;;;3.68;73.72;100378.88;5116442;28;20393;-72
2022/02/25 00:37:43;;;;;;;16.50;8.45;;;;;;;3.61;73.96;100380.81;5116607;28;20388;-72
2022/02/25 00:40:12;;;;;;;13.48;7.35;;;;;;;3.63;74.06;100375.50;5115882;28;20054;-71
2022/02/25 00:42:42;;;;;;;15.80;6.80;;;;;;;3.76;73.31;100368.94;5116205;28;20138;-72
2022/02/25 00:45:11;;;;;;;15.20;7.43;;;;;;;3.67;73.64;100366.59;5115812;28;20075;-72
2022/02/25 00:47:40;;;;;;;15.13;7.95;;;;;;;3.69;73.60;100380.59;5116292;28;20479;-70
2022/02/25 00:50:09;;;;;;;18.17;8.68;;;;;;;3.67;73.92;100369.25;5116031;28;20457;-70
2022/02/25 00:52:38;;;;;;;15.68;8.35;;;;;;;3.65;74.22;100371.91;5116240;28;20044;-69
2022/02/25 00:55:08;;;;;;;14.85;7.88;;;;;;;3.57;74.82;100371.28;5115953;28;20055;-68
2022/02/25 00:57:43;;;;;;;16.02;8.10;;;;;;;3.47;76.01;100371.56;5116190;28;20105;-69
2022/02/25 01:00:14;;;;;;;13.70;6.53;;;;;;;3.39;76.42;100377.09;5115658;28;20138;-72
2022/02/25 01:02:43;;;;;;;14.32;7.18;;;;;;;3.44;76.17;100360.22;5116089;28;20044;-72
2022/02/25 01:05:12;;;;;;;12.70;6.70;;;;;;;3.48;75.81;100361.00;5115754;28;20036;-73
2022/02/25 01:07:41;;;;;;;14.15;6.50;;;;;;;3.62;75.05;100365.88;5115882;28;20043;-72
2022/02/25 01:10:11;;;;;;;16.25;6.22;;;;;;;3.56;75.28;100368.66;5115579;28;20039;-72
2022/02/25 01:12:40;;;;;;;12.48;7.00;;;;;;;3.56;75.17;100363.41;5115520;28;20050;-73
2022/02/25 01:15:10;;;;;;;16.00;7.60;;;;;;;3.56;75.21;100363.41;5115510;28;20054;-72
2022/02/25 01:17:40;;;;;;;18.63;8.45;;;;;;;3.41;75.97;100378.78;5115455;28;20048;-72
2022/02/25 01:20:09;;;;;;;15.65;7.97;;;;;;;3.31;76.39;100382.59;5115475;28;20047;-72
2022/02/25 01:22:41;;;;;;;15.43;7.45;;;;;;;3.20;77.24;100379.38;5115620;28;20124;-72
2022/02/25 01:25:09;;;;;;;17.38;7.30;;;;;;;3.21;77.11;100367.94;5114982;28;20078;-72
2022/02/25 01:27:40;;;;;;;13.18;6.40;;;;;;;3.29;76.87;100357.19;5115571;28;20042;-74
2022/02/25 01:30:09;;;;;;;14.02;5.93;;;;;;;3.30;76.31;100359.78;5114944;28;20036;-71
2022/02/25 01:32:38;;;;;;;14.57;5.95;;;;;;;3.34;76.10;100350.84;5115153;28;20043;-71
2022/02/25 01:35:08;;;;;;;12.60;6.63;;;;;;;3.24;76.78;100351.16;5115181;28;20040;-71
2022/02/25 01:37:37;;;;;;;12.68;6.65;;;;;;;3.10;77.65;100359.47;5115248;28;20500;-72
2022/02/25 01:40:07;;;;;;;13.50;6.40;;;;;;;3.06;77.51;100361.31;5114902;28;20097;-72
2022/02/25 01:42:44;;;;;;;13.82;6.90;;;;;;;3.03;77.05;100360.53;5096867;28;20106;-71
2022/02/25 01:45:12;;;;;;;13.00;6.60;;;;;;;2.93;78.92;100367.81;5114971;28;20039;-71
2022/02/25 01:47:41;;;;;;;13.63;6.80;;;;;;;2.85;78.86;100364.53;5114906;28;20043;-72
2022/02/25 01:50:12;;;;;;;16.65;7.25;;;;;;;2.77;79.28;100354.19;5114621;28;20461;-72
2022/02/25 01:52:47;;;;;;;16.13;7.55;;;;;;;2.74;79.24;100349.00;5115163;28;20039;-72
2022/02/25 01:55:16;;;;;;;17.27;7.88;;;;;;;2.76;79.41;100357.72;5115131;28;20043;-72
2022/02/25 01:57:44;;;;;;;15.65;7.57;;;;;;;2.75;79.42;100369.19;5114647;28;20039;-72
2022/02/25 02:00:13;;;;;;;15.10;7.80;;;;;;;2.77;79.08;100361.22;5114350;28;20040;-72
2022/02/25 02:02:41;;;;;;;15.40;7.63;;;;;;;2.74;79.60;100348.16;5096862;28;20055;-72
2022/02/25 02:05:11;;;;;;;14.90;7.80;;;;;;;2.78;79.06;100339.25;5114542;28;20039;-72
2022/02/25 02:07:39;;;;;;;14.73;7.43;;;;;;;2.98;77.49;100330.81;5114780;28;20073;-72
2022/02/25 02:10:08;;;;;;;12.73;6.80;;;;;;;3.01;76.94;100325.47;5095777;28;20052;-72
2022/02/25 02:12:38;;;;;;;18.08;8.63;;;;;;;3.08;76.26;100327.00;5114610;28;20093;-75
2022/02/25 02:15:07;;;;;;;17.92;8.32;;;;;;;2.98;76.95;100333.44;5114321;28;20039;-72
2022/02/25 02:17:36;;;;;;;19.27;9.18;;;;;;;2.90;77.55;100340.72;5114680;28;20060;-72
2022/02/25 02:20:06;;;;;;;18.08;8.68;;;;;;;3.11;75.06;100326.94;5114142;28;20047;-72
2022/02/25 02:22:36;;;;;;;11.50;6.55;;;;;;;3.32;73.50;100328.94;5114356;28;20067;-72
2022/02/25 02:25:05;;;;;;;11.95;5.80;;;;;;;3.33;72.92;100306.06;5114479;28;20072;-73
2022/02/25 02:30:20;;;;;;;10.70;5.72;;;;;;;3.41;72.06;100310.22;5114135;28;20040;-73
2022/02/25 02:32:49;;;;;;;10.77;5.18;;;;;;;3.32;72.09;100323.66;5114278;28;20063;-73
2022/02/25 02:35:19;;;;;;;10.93;5.30;;;;;;;3.13;73.47;100327.75;5114019;28;20100;-74
2022/02/25 02:37:49;;;;;;;11.27;4.97;;;;;;;3.06;73.72;100324.41;5114249;28;20460;-73
2022/02/25 02:40:17;;;;;;;11.57;5.20;;;;;;;3.09;72.97;100331.38;5113885;28;20074;-73
2022/02/25 02:42:45;;;;;;;10.95;5.60;;;;;;;3.21;72.20;100325.75;5114095;28;20115;-73
2022/02/25 02:45:15;;;;;;;12.77;5.00;;;;;;;3.30;71.31;100319.34;5113839;28;20472;-73
2022/02/25 02:47:43;;;;;;;12.10;5.95;;;;;;;3.22;71.09;100319.56;5114211;28;20503;-75
2022/02/25 02:50:15;;;;;;;11.88;5.25;;;;;;;3.20;71.21;100318.75;5113785;28;20400;-73
2022/02/25 02:52:43;;;;;;;9.77;5.13;;;;;;;3.17;71.13;100309.16;5095207;28;20050;-72
2022/02/25 02:55:13;;;;;;;14.23;6.32;;;;;;;3.10;71.00;100322.56;5113699;28;20370;-72
2022/02/25 02:57:43;;;;;;;13.55;6.05;;;;;;;3.03;70.76;100321.00;5113919;28;20036;-73
2022/02/25 03:00:13;;;;;;;11.27;5.93;;;;;;;3.02;71.16;100314.00;5113586;28;20488;-73
2022/02/25 03:02:42;;;;;;;12.05;5.25;;;;;;;2.93;71.12;100312.50;5113830;28;20388;-72
2022/02/25 03:05:11;;;;;;;14.77;5.45;;;;;;;2.94;71.54;100321.25;5113434;28;20036;-73
2022/02/25 03:07:40;;;;;;;11.90;5.38;;;;;;;2.95;71.18;100323.00;5113742;28;20110;-72
2022/02/25 03:10:11;;;;;;;15.63;5.70;;;;;;;2.84;71.69;100324.16;5113236;28;20040;-73
2022/02/25 03:12:42;;;;;;;11.15;5.07;;;;;;;2.83;71.58;100311.88;5113326;28;20461;-73
2022/02/25 03:15:18;;;;;;;12.80;5.65;;;;;;;2.80;71.73;100308.50;5113450;28;20100;-72
2022/02/25 03:17:47;;;;;;;11.52;5.47;;;;;;;2.85;71.65;100302.16;5113737;28;20553;-72
2022/02/25 03:20:15;;;;;;;14.70;6.05;;;;;;;2.84;71.72;100305.72;5112906;28;20477;-71
2022/02/25 03:22:44;;;;;;;14.63;5.63;;;;;;;2.82;71.59;100301.41;5113587;28;20130;-71
2022/02/25 03:25:13;;;;;;;12.52;5.22;;;;;;;2.69;71.69;100298.22;5112936;28;20060;-71
2022/02/25 03:27:43;;;;;;;11.75;5.53;;;;;;;2.69;71.36;100292.09;5113543;28;20043;-71
2022/02/25 03:30:12;;;;;;;11.90;5.65;;;;;;;2.55;71.70;100301.22;5112816;28;20044;-72
2022/02/25 03:32:42;;;;;;;13.63;5.65;;;;;;;2.47;71.99;100315.50;5113494;28;20119;-71
2022/02/25 03:35:11;;;;;;;13.57;6.00;;;;;;;2.50;71.44;100331.22;5113118;28;20064;-72
2022/02/25 03:37:40;;;;;;;12.77;6.43;;;;;;;2.38;71.80;100321.88;5113569;28;20043;-72
2022/02/25 03:40:13;;;;;;;13.55;6.10;;;;;;;2.43;72.10;100316.50;5113172;28;20035;-72
2022/02/25 03:42:43;;;;;;;11.55;5.65;;;;;;;2.57;71.06;100315.22;5112983;28;20108;-73
2022/02/25 03:45:13;;;;;;;11.10;5.85;;;;;;;2.43;71.77;100321.75;5113063;28;20074;-72
2022/02/25 03:47:42;;;;;;;14.48;5.72;;;;;;;2.35;71.93;100326.34;5113143;28;20130;-72
2022/02/25 03:50:10;;;;;;;13.05;5.45;;;;;;;2.37;71.96;100309.59;5112994;28;20557;-72
2022/02/25 03:52:39;;;;;;;11.82;5.53;;;;;;;2.54;71.39;100311.81;5113327;28;20035;-71
2022/02/25 03:55:09;;;;;;;12.40;5.65;;;;;;;2.47;71.27;100311.09;5112962;28;20054;-73
2022/02/25 03:57:38;;;;;;;11.63;5.60;;;;;;;2.42;71.66;100317.41;5112898;28;20501;-71
2022/02/25 04:00:11;;;;;;;13.85;6.53;;;;;;;2.43;71.50;100319.13;5112920;28;20104;-72
2022/02/25 04:02:39;;;;;;;14.63;6.10;;;;;;;2.26;72.60;100323.03;5113394;28;20040;-71
2022/02/25 04:05:11;;;;;;;15.10;6.00;;;;;;;2.17;73.18;100330.31;5115301;28;20032;-72
2022/02/25 04:07:41;;;;;;;14.43;6.15;;;;;;;2.01;73.95;100327.16;5099415;28;20052;-72
2022/02/25 04:10:10;;;;;;;11.55;5.78;;;;;;;2.00;74.12;100328.94;5116785;28;20046;-72
2022/02/25 04:12:39;;;;;;;12.23;5.85;;;;;;;2.11;73.34;100323.41;5116856;28;20386;-71
2022/02/25 04:15:10;;;;;;;12.95;6.18;;;;;;;2.10;74.28;100324.31;5116384;28;20499;-72
2022/02/25 04:17:39;;;;;;;15.13;5.82;;;;;;;2.20;72.95;100302.13;5117235;28;20044;-72
2022/02/25 04:20:08;;;;;;;15.45;6.22;;;;;;;2.17;73.34;100312.75;5098549;28;20048;-72
2022/02/25 04:22:37;;;;;;;13.43;5.80;;;;;;;2.19;73.41;100326.72;5098875;28;20086;-71
2022/02/25 04:25:06;;;;;;;15.45;6.25;;;;;;;2.14;73.71;100323.38;5116411;28;20044;-71
2022/02/25 04:27:35;;;;;;;10.32;5.55;;;;;;;1.99;75.16;100318.47;5116885;28;20043;-71
2022/02/25 04:30:04;;;;;;;13.50;6.20;;;;;;;1.85;75.83;100323.19;5116268;28;20043;-78
2022/02/25 04:32:35;;;;;;;15.90;6.03;;;;;;;1.79;76.67;100331.22;5116439;28;20401;-72
2022/02/25 04:35:04;;;;;;;11.98;5.70;;;;;;;1.76;76.99;100320.78;5116538;28;20070;-78
2022/02/25 04:37:34;;;;;;;12.32;5.90;;;;;;;1.79;77.10;100337.34;5116650;28;20035;-73
2022/02/25 04:40:03;;;;;;;17.35;6.70;;;;;;;1.77;78.19;100335.66;5116563;28;20043;-74
2022/02/25 04:42:31;;;;;;;13.25;6.10;;;;;;;1.79;77.87;100334.72;5116433;28;20039;-74
2022/02/25 04:45:00;;;;;;;13.52;6.00;;;;;;;1.68;78.09;100329.69;5116598;28;20047;-74
2022/02/25 04:47:28;;;;;;;18.55;6.97;;;;;;;1.62;78.63;100332.44;5116056;28;20392;-74
2022/02/25 04:49:58;;;;;;;11.02;5.82;;;;;;;1.62;78.29;100321.06;5115971;28;20082;-73
2022/02/25 04:52:26;;;;;;;13.63;6.90;;;;;;;1.67;78.52;100317.44;5115911;28;20220;-73
2022/02/25 04:54:54;;;;;;;11.20;5.90;;;;;;;1.86;76.83;100306.50;5116241;28;20081;-73
2022/02/25 04:57:23;;;;;;;12.63;6.10;;;;;;;1.81;76.89;100309.22;5115910;28;20069;-73
2022/02/25 04:59:51;;;;;;;14.05;6.40;;;;;;;1.71;77.66;100313.84;5115830;28;20063;-74
2022/02/25 05:02:20;;;;;;;12.40;5.75;;;;;;;1.79;77.54;100318.06;5115436;28;20066;-74
2022/02/25 05:04:49;;;;;;;12.18;5.63;;;;;;;1.85;77.41;100317.94;5115944;28;20035;-74
2022/02/25 05:07:19;;;;;;;10.25;5.60;;;;;;;1.82;77.82;100323.25;5115610;28;20044;-71
2022/02/25 05:09:47;;;;;;;16.42;6.20;;;;;;;1.86;76.97;100314.41;5097295;28;20058;-71
2022/02/25 05:12:15;;;;;;;14.73;6.75;;;;;;;1.91;76.90;100323.03;5115845;28;20135;-71
2022/02/25 05:20:25;;;;;;;12.88;6.50;;;;;;;1.86;76.84;100317.03;5115429;28;20556;-72
2022/02/25 05:22:57;;;;;;;12.07;6.10;;;;;;;1.88;76.77;100315.22;5115763;28;20065;-74
2022/02/25 05:25:27;;;;;;;14.93;6.73;;;;;;;1.84;77.04;100306.56;5115065;28;20400;-73
2022/02/25 05:27:57;;;;;;;12.90;6.13;;;;;;;1.86;77.09;100301.25;5115264;28;20101;-73
2022/02/25 05:30:26;;;;;;;15.15;6.72;;;;;;;1.86;76.82;100302.13;5115162;28;20085;-74
2022/02/25 05:32:55;;;;;;;16.58;6.82;;;;;;;1.70;77.93;100304.22;5115393;28;20046;-72
2022/02/25 05:35:24;;;;;;;13.05;6.68;;;;;;;1.54;78.95;100308.09;5115186;28;20040;-72
2022/02/25 05:38:00;;;;;;;13.70;6.85;;;;;;;1.59;78.82;100311.50;5115418;28;20047;-72
2022/02/25 05:40:28;;;;;;;17.67;7.10;;;;;;;1.76;78.06;100315.50;5114859;28;20818;-72
2022/02/25 05:42:57;;;;;;;15.18;7.22;;;;;;;1.56;79.43;100313.34;5096741;28;20047;-72
2022/02/25 05:45:25;;;;;;;14.88;7.45;;;;;;;1.50;80.54;100311.69;5114771;28;20054;-72
2022/02/25 05:47:54;;;;;;;15.95;7.60;;;;;;;1.57;80.24;100325.59;5114805;28;20054;-72
2022/02/25 05:50:23;;;;;;;16.63;7.22;;;;;;;1.51;80.75;100344.13;5114444;28;20065;-72
2022/02/25 05:52:55;;;;;;;14.80;7.50;;;;;;;1.43;82.56;100360.03;5115140;28;20058;-70
2022/02/25 05:55:24;;;;;;;16.60;7.53;;;;;;;1.42;82.51;100364.44;5114770;28;20039;-72
2022/02/25 05:57:54;;;;;;;14.90;8.13;;;;;;;1.47;81.94;100351.22;5097146;28;20059;-72
2022/02/25 06:00:23;;;;;;;17.23;7.25;;;;;;;1.65;81.66;100348.19;5114436;28;20039;-72
2022/02/25 06:02:52;;;;;;;14.48;7.63;;;;;;;1.64;81.09;100348.19;5114561;28;20093;-72
2022/02/25 06:05:21;;;;;;;13.55;7.50;;;;;;;1.61;81.51;100349.13;5114360;28;20035;-72
2022/02/25 06:07:49;;;;;;;16.30;8.25;;;;;;;1.51;82.52;100370.41;5114720;28;20070;-71
2022/02/25 06:10:17;;;;;;;14.25;7.40;;;;;;;1.44;83.21;100370.53;5114355;28;20050;-70
2022/02/25 06:12:47;;;;;;;17.50;8.57;;;;;;;1.63;83.10;100378.00;5114692;28;20048;-71
2022/02/25 06:15:15;;;;;;;21.38;8.98;;;;;;;1.81;82.93;100379.38;5114219;28;20063;-72
2022/02/25 06:17:47;;;;;;;19.77;9.93;;;;;;;1.63;84.47;100389.41;5114110;28;20101;-68
2022/02/25 06:20:17;;;;;;;26.25;10.32;;;;;;;1.66;84.83;100399.88;5114250;28;20039;-70
2022/02/25 06:22:45;;;;;;;24.63;11.20;;;;;;;1.67;86.38;100414.75;5114425;28;20075;-68
2022/02/25 06:25:16;;;;;;;21.98;11.15;;;;;;;1.70;86.98;100413.81;5113531;28;20044;-74
2022/02/25 06:27:45;;;;;;;18.17;9.73;;;;;;;1.96;86.17;100408.84;5113202;28;20048;-72
2022/02/25 06:30:16;;;;;;;20.17;9.93;;;;;;;1.98;85.66;100406.19;5114029;28;20533;-78
2022/02/25 06:32:46;;;;;;;22.77;11.13;;;;;;;1.76;87.29;100403.16;5114367;28;20043;-73
2022/02/25 06:35:14;;;;;;;23.63;11.65;;;;;;;1.90;86.36;100397.59;5113941;28;20551;-75
2022/02/25 06:37:43;;;;;;;28.38;11.93;;;;;;;1.90;87.24;100402.84;5113858;28;20039;-73
2022/02/25 06:40:13;;;;;;;23.13;11.10;;;;;;;1.95;86.57;100401.00;5114076;28;20161;-73
2022/02/25 06:42:41;;;;;;;22.77;10.05;;;;;;;1.94;86.89;100407.16;5114450;28;20101;-73
2022/02/25 06:45:19;;;;;;;21.45;11.18;;;;;;;2.03;86.54;100419.22;5113680;28;20088;-75
2022/02/25 06:47:49;;;;;;;24.23;10.32;;;;;;;2.19;84.70;100399.56;5113820;28;20122;-74
2022/02/25 06:50:18;;;;;;;21.88;10.23;;;;;;;2.10;83.68;100426.06;5113837;28;20067;-74
2022/02/25 06:52:47;;;;;;;21.25;10.32;;;;;;;2.18;83.33;100432.03;5113927;28;20039;-73
2022/02/25 06:55:18;;;;;;;22.10;11.23;;;;;;;2.06;83.28;100433.19;5113918;28;20118;-77
2022/02/25 06:58:03;;;;;;;22.77;11.32;;;;;;;2.04;84.01;100410.44;5113740;28;20122;-75
2022/02/25 07:00:34;;;;;;;21.05;10.18;;;;;;;2.18;82.14;100446.06;5113405;28;20131;-75
2022/02/25 07:03:03;;;;;;;25.88;11.02;;;;;;;2.27;82.05;100476.56;5113880;28;20043;-75
2022/02/25 07:05:32;;;;;;;18.58;9.95;;;;;;;2.36;81.08;100470.22;5113252;28;20377;-76
2022/02/25 07:08:01;;;;;;;19.38;9.27;;;;;;;2.38;80.04;100474.56;5114063;28;20048;-73
2022/02/25 07:10:32;;;;;;;17.92;9.18;;;;;;;2.52;78.93;100476.88;5113520;28;20538;-73
2022/02/25 07:13:02;;;;;;;19.15;10.02;;;;;;;2.59;78.62;100483.72;5113752;28;20392;-74
2022/02/25 07:15:31;;;;;;;18.80;9.35;;;;;;;2.56;78.63;100489.06;5113509;28;20036;-74
2022/02/25 07:18:01;;;;;;;18.13;10.18;;;;;;;2.55;77.68;100492.59;5113987;28;20082;-73
2022/02/25 07:20:29;;;;;;;20.73;9.55;;;;;;;2.51;78.34;100501.47;5113239;28;20044;-71
2022/02/25 07:22:59;;;;;;;17.02;9.45;;;;;;;2.70;77.27;100512.44;5116560;28;20047;-72
2022/02/25 07:25:27;;;;;;;20.25;9.40;;;;;;;2.81;76.77;100511.28;5114612;28;20039;-72
2022/02/25 07:27:56;;;;;;;15.75;9.25;;;;;;;2.75;76.42;100502.66;5113614;28;20435;-68
2022/02/25 07:30:26;;;;;;;22.23;9.77;;;;;;;2.80;76.03;100509.56;5113316;28;20455;-70
2022/02/25 07:32:56;;;;;;;16.77;9.48;;;;;;;2.94;74.86;100518.88;5113589;28;20040;-69
2022/02/25 07:35:25;;;;;;;20.35;8.77;;;;;;;3.08;75.01;100532.56;5113123;28;20040;-70
2022/02/25 07:37:54;;;;;;;22.83;9.80;;;;;;;3.39;73.06;100536.19;5113807;28;20046;-68
2022/02/25 07:40:24;;;;;;;20.60;8.93;;;;;;;3.41;73.47;100537.00;5117161;28;20063;-72
2022/02/25 07:42:55;;;;;;;19.10;9.02;;;;;;;3.63;72.08;100545.19;5117715;28;20063;-71
2022/02/25 07:45:25;;;;;;;14.18;8.65;;;;;;;3.64;71.73;100541.66;5117537;28;20123;-73
2022/02/25 07:47:54;;;;;;;20.13;9.18;;;;;;;3.95;70.79;100527.59;5117528;28;20074;-72
2022/02/25 07:50:28;;;;;;;23.33;9.70;;;;;;;4.22;69.67;100518.88;5117231;28;20047;-71
2022/02/25 07:52:56;;;;;;;18.77;9.00;;;;;;;4.35;68.47;100515.88;5117729;28;20047;-71
2022/02/25 07:55:27;;;;;;;17.90;9.35;;;;;;;4.44;67.39;100513.81;5117324;28;20040;-69
2022/02/25 07:57:56;;;;;;;18.10;8.55;;;;;;;4.50;67.29;100518.91;5117209;28;20047;-68
2022/02/25 08:00:28;;;;;;;17.08;8.45;;;;;;;4.57;66.42;100509.88;5117249;28;20036;-68
2022/02/25 08:02:57;;;;;;;18.10;8.15;;;;;;;4.70;66.24;100509.47;5117245;28;20043;-69
2022/02/25 08:05:27;;;;;;;17.70;7.95;;;;;;;4.73;65.75;100504.97;5117094;28;20040;-69
2022/02/25 08:07:57;;;;;;;15.10;7.68;;;;;;;4.86;65.69;100506.31;5117074;28;20071;-68
2022/02/25 08:10:26;;;;;;;16.95;8.43;;;;;;;4.83;66.18;100494.97;5117111;28;20067;-68
2022/02/25 08:12:54;;;;;;;18.38;8.35;;;;;;;4.74;65.79;100487.34;5117091;28;20040;-68
2022/02/25 08:15:23;;;;;;;16.05;8.45;;;;;;;4.74;66.35;100468.84;5116987;28;20050;-72
2022/02/25 08:17:51;;;;;;;14.80;8.05;;;;;;;4.71;65.89;100501.50;5117296;28;20172;-68
2022/02/25 08:20:19;;;;;;;13.02;7.28;;;;;;;4.52;65.83;100485.38;5117218;28;20090;-68
2022/02/25 08:22:50;;;;;;;20.08;8.13;;;;;;;4.17;67.17;100489.13;5116846;28;20047;-68
2022/02/25 08:25:18;;;;;;;15.90;7.55;;;;;;;4.12;67.80;100506.00;5117105;28;20043;-67
2022/02/25 08:27:47;;;;;;;13.75;7.75;;;;;;;4.08;68.25;100505.22;5116570;28;20127;-68
2022/02/25 08:30:16;;;;;;;15.10;7.80;;;;;;;4.26;67.34;100494.13;5116917;28;20043;-69
2022/02/25 08:32:46;;;;;;;17.90;8.13;;;;;;;4.22;68.26;100512.72;5116782;28;20047;-67
2022/02/25 08:35:15;;;;;;;15.75;8.35;;;;;;;4.32;67.28;100503.63;5116938;28;20036;-68
2022/02/25 08:37:44;;;;;;;15.70;8.52;;;;;;;4.42;67.84;100506.84;5116510;28;20071;-68
2022/02/25 08:40:15;;;;;;;14.43;8.23;;;;;;;4.41;67.06;100505.97;5116449;28;20063;-67
2022/02/25 08:42:44;;;;;;;14.30;7.97;;;;;;;4.44;67.36;100515.56;5116083;28;20414;-68
2022/02/25 08:45:14;;;;;;;15.57;8.32;;;;;;;4.49;67.61;100522.47;5098119;28;20442;-68
2022/02/25 08:47:45;;;;;;;19.92;8.75;;;;;;;4.50;67.27;100520.69;5116092;28;20039;-67
2022/02/25 08:50:16;;;;;;;21.55;8.90;;;;;;;4.54;67.74;100520.56;5115526;28;20043;-68
2022/02/25 08:52:46;;;;;;;17.75;8.70;;;;;;;4.78;66.63;100512.75;5116308;28;20492;-68
2022/02/25 08:55:16;;;;;;;17.42;8.63;;;;;;;4.91;66.21;100510.56;5098185;28;20097;-68
2022/02/25 08:57:45;;;;;;;17.33;8.98;;;;;;;4.99;65.89;100509.41;5116110;28;20422;-68
2022/02/25 09:00:16;;;;;;;15.02;7.65;;;;;;;5.26;64.61;100517.31;5116191;28;20046;-68
2022/02/25 09:02:47;;;;;;;18.23;8.20;;;;;;;5.32;64.14;100514.47;5115960;28;20067;-68
2022/02/25 09:05:16;;;;;;;16.05;8.13;;;;;;;5.41;64.00;100522.09;5116249;28;20043;-68
2022/02/25 09:07:45;;;;;;;15.80;8.30;;;;;;;5.52;64.37;100522.59;5115814;28;20086;-68
2022/02/25 09:10:15;;;;;;;16.80;7.93;;;;;;;5.68;64.01;100521.09;5097831;28;20047;-67
2022/02/25 09:12:47;;;;;;;16.35;8.60;;;;;;;5.82;63.70;100519.75;5115472;28;20048;-68
2022/02/25 09:15:17;;;;;;;18.25;8.25;;;;;;;6.03;63.64;100511.06;5115856;28;20078;-67
2022/02/25 09:17:46;;;;;;;14.35;8.27;;;;;;;6.14;63.05;100521.25;5116010;28;20051;-68
2022/02/25 09:20:14;;;;;;;15.23;8.30;;;;;;;6.34;62.40;100510.75;5115879;28;20044;-68
2022/02/25 09:22:42;;;;;;;17.10;7.05;;;;;;;6.48;62.17;100518.19;5115149;28;20039;-67
2022/02/25 09:25:11;;;;;;;14.80;7.05;;;;;;;6.54;62.55;100528.53;5115510;28;20043;-67
2022/02/25 09:27:40;;;;;;;18.25;8.15;;;;;;;6.64;61.72;100526.38;5097204;28;20162;-67
2022/02/25 09:30:12;;;;;;;14.73;7.43;;;;;;;6.75;61.28;100525.00;5115624;28;20040;-67
2022/02/25 09:32:42;;;;;;;14.18;6.93;;;;;;;6.95;60.84;100539.25;5115357;28;20058;-67
2022/02/25 09:35:11;;;;;;;13.85;7.57;;;;;;;6.84;61.35;100524.66;5115125;28;20501;-67
2022/02/25 09:37:39;;;;;;;13.65;7.38;;;;;;;6.96;60.82;100527.75;5115032;28;20436;-67
2022/02/25 09:40:11;;;;;;;16.15;5.95;;;;;;;7.05;61.13;100522.06;5115343;28;20099;-67
2022/02/25 09:42:42;;;;;;;12.30;4.78;;;;;;;7.27;60.51;100538.81;5115083;28;20101;-67
2022/02/25 09:45:17;;;;;;;10.90;4.47;;;;;;;7.42;59.81;100535.47;5115510;28;20044;-67
2022/02/25 09:47:46;;;;;;;9.00;3.83;;;;;;;7.49;59.54;100537.88;5115043;28;20096;-68
2022/02/25 09:50:17;;;;;;;9.60;3.20;;;;;;;7.43;59.68;100544.31;5114880;28;20378;-68
2022/02/25 09:52:46;;;;;;;8.45;3.78;;;;;;;7.56;59.82;100534.06;5114581;28;20115;-68
2022/02/25 09:55:25;;;;;;;7.88;3.65;;;;;;;7.57;58.99;100546.41;5115150;28;20044;-68
2022/02/25 09:57:59;;;;;;;6.80;3.30;;;;;;;7.58;59.01;100537.50;5115131;28;20097;-67
2022/02/25 10:00:31;;;;;;;9.48;3.42;;;;;;;7.60;58.87;100535.63;5115214;28;20070;-67
2022/02/25 10:03:01;;;;;;;12.98;3.72;;;;;;;7.60;58.93;100539.16;5115271;28;20043;-67
2022/02/25 10:05:32;;;;;;;9.85;3.92;;;;;;;7.55;59.10;100548.25;5114893;28;20047;-75
2022/02/25 10:08:10;;;;;;;8.75;3.45;;;;;;;7.68;59.20;100538.81;5114541;28;20071;-67
2022/02/25 10:10:44;;;;;;;9.82;4.75;;;;;;;7.71;59.43;100544.84;5114445;28;20048;-67
2022/02/25 10:13:14;;;;;;;13.68;5.60;;;;;;;7.74;59.57;100543.88;5114739;28;20039;-67
2022/02/25 10:15:44;;;;;;;9.50;5.53;;;;;;;7.77;59.36;100548.19;5114312;28;20047;-68
2022/02/25 10:18:15;;;;;;;7.32;3.92;;;;;;;7.90;58.72;100534.28;5114827;28;20065;-68
2022/02/25 10:20:45;;;;;;;16.65;3.92;;;;;;;8.03;57.87;100559.38;5114214;28;20104;-68
2022/02/25 10:23:21;;;;;;;8.80;3.60;;;;;;;8.14;57.71;100529.66;5114810;28;20120;-68
2022/02/25 10:25:51;;;;;;;7.60;3.88;;;;;;;8.26;57.45;100539.72;5114440;28;20066;-68
2022/02/25 10:28:31;;;;;;;11.13;3.95;;;;;;;8.20;57.33;100536.47;5114228;28;20062;-68
2022/02/25 10:31:24;;;;;;;12.32;4.32;;;;;;;8.32;57.17;100542.13;5114382;28;20488;-67
2022/02/25 10:34:04;;;;;;;7.15;4.07;;;;;;;8.62;56.74;100549.63;5114236;28;20048;-66
2022/02/25 10:36:44;;;;;;;6.75;3.85;;;;;;;8.63;56.79;100547.81;5095710;28;20051;-75
2022/02/25 10:39:19;;;;;;;9.10;4.00;;;;;;;8.60;56.63;100540.84;5114105;28;20071;-67
2022/02/25 10:42:03;;;;;;;9.20;4.00;;;;;;;8.50;56.86;100539.56;5114257;28;20047;-68
2022/02/25 10:44:41;;;;;;;6.38;3.80;;;;;;;8.55;56.67;100558.81;5114625;28;20055;-67
2022/02/25 10:47:17;;;;;;;8.38;3.47;;;;;;;8.49;56.67;100543.13;5114333;28;20366;-67
2022/02/25 10:49:45;;;;;;;5.78;3.45;;;;;;;8.54;57.04;100554.44;5113780;28;20063;-67
2022/02/25 10:52:24;;;;;;;7.90;4.75;;;;;;;8.74;56.46;100538.38;5114063;28;20044;-67
2022/02/25 10:54:53;;;;;;;9.20;3.65;;;;;;;8.84;56.15;100560.09;5113660;28;20080;-67
2022/02/25 10:57:25;;;;;;;7.50;2.97;;;;;;;9.05;55.61;100551.06;5114044;28;20040;-67
2022/02/25 10:59:55;;;;;;;9.07;3.17;;;;;;;8.85;54.82;100546.72;5113976;28;20044;-67
2022/02/25 11:02:30;;;;;;;;;;;;;;;8.69;54.62;100548.41;5114346;28;20108;-67
2022/02/25 11:05:00;;;;;;;6.53;2.90;;;;;;;8.78;54.54;100544.41;5113826;28;20029;-67
2022/02/25 11:07:29;;;;;;;5.63;2.90;;;;;;;8.73;54.66;100549.09;5113603;28;20043;-67
2022/02/25 11:09:57;;;;;;;6.30;3.35;;;;;;;8.77;55.60;100553.31;5113290;28;20044;-68
2022/02/25 11:12:28;;;;;;;5.78;2.60;;;;;;;8.59;53.76;100576.38;5113196;28;20043;-67
2022/02/25 11:14:57;;;;;;;6.07;2.45;;;;;;;8.40;53.90;100564.84;5113919;28;20127;-66
2022/02/25 11:17:26;;;;;;;6.35;2.65;;;;;;;8.42;54.30;100544.38;5113519;28;20416;-67
2022/02/25 11:19:59;;;;;;;6.40;2.50;;;;;;;8.38;53.43;100538.31;5113094;28;20050;-68
2022/02/25 11:22:28;;;;;;;;;;;;;;;8.49;52.87;100554.66;5113931;28;20439;-68
2022/02/25 11:24:58;;;;;;;3.67;2.08;;;;;;;8.27;51.88;100521.97;5113686;28;19934;-68
2022/02/25 11:27:35;;;;;;;4.22;1.95;;;;;;;8.20;52.03;100528.50;5113544;28;20050;-67
2022/02/25 11:30:09;;;;;;;5.00;2.25;;;;;;;8.28;52.26;100534.34;5113682;28;20168;-66
2022/02/25 11:32:41;;;;;;;2.97;1.70;;;;;;;8.40;50.52;100555.09;5113431;28;20070;-68
2022/02/25 11:35:26;;;;;;;5.47;2.10;;;;;;;8.27;50.66;100530.81;5113347;28;20489;-67
2022/02/25 11:38:01;;;;;;;3.42;1.83;;;;;;;8.19;51.37;100540.06;5113334;28;20120;-67
2022/02/25 11:40:53;;;;;;;3.88;2.38;;;;;;;8.28;50.55;100545.81;5113121;28;20047;-67
2022/02/25 11:43:37;;;;;;;5.53;2.67;;;;;;;8.19;50.95;100545.38;5113401;28;20043;-67
2022/02/25 11:46:07;;;;;;;6.05;2.47;;;;;;;8.32;50.92;100552.75;5113255;28;20046;-67
2022/02/25 11:48:45;;;;;;;3.95;2.08;;;;;;;8.36;49.76;100548.16;5113408;28;20130;-67